createdAt,value
2018-08-12T00:00:35.237Z,23.89
2018-08-12T00:01:35.458Z,23.9
2018-08-12T00:02:35.194Z,23.91
2018-08-12T00:03:35.246Z,23.91
2018-08-12T00:04:35.289Z,23.9
2018-08-12T00:05:35.465Z,23.9
2018-08-12T00:06:35.414Z,23.91
2018-08-12T00:07:35.274Z,23.9
2018-08-12T00:08:35.359Z,23.91
2018-08-12T00:09:35.364Z,23.9
2018-08-12T00:10:35.315Z,23.9
2018-08-12T00:11:35.441Z,23.9
2018-08-12T00:12:35.349Z,23.9
2018-08-12T00:13:35.282Z,23.91
2018-08-12T00:14:35.262Z,23.89
2018-08-12T00:15:35.371Z,23.91
2018-08-12T00:16:35.299Z,23.9
2018-08-12T00:17:35.195Z,23.91
2018-08-12T00:18:35.462Z,23.89
2018-08-12T00:19:35.289Z,23.89
2018-08-12T00:20:35.455Z,23.9
2018-08-12T00:21:35.652Z,23.88
2018-08-12T00:22:35.357Z,23.89
2018-08-12T00:23:35.230Z,23.88
2018-08-12T00:24:35.383Z,23.88
2018-08-12T00:25:35.196Z,23.88
2018-08-12T00:26:35.282Z,23.89
2018-08-12T00:27:35.333Z,23.89
2018-08-12T00:28:35.388Z,23.88
2018-08-12T00:29:35.488Z,23.87
2018-08-12T00:30:35.559Z,23.88
2018-08-12T00:31:35.379Z,23.86
2018-08-12T00:32:35.293Z,23.87
2018-08-12T00:33:35.361Z,23.87
2018-08-12T00:34:35.335Z,23.87
2018-08-12T00:35:35.600Z,23.86
2018-08-12T00:36:35.595Z,23.87
2018-08-12T00:37:35.357Z,23.87
2018-08-12T00:38:35.402Z,23.86
2018-08-12T00:39:35.310Z,23.87
2018-08-12T00:40:35.311Z,23.86
2018-08-12T00:41:35.232Z,23.86
2018-08-12T00:42:35.590Z,23.85
2018-08-12T00:43:35.397Z,23.86
2018-08-12T00:44:35.459Z,23.87
2018-08-12T00:45:35.296Z,23.87
2018-08-12T00:46:35.363Z,23.87
2018-08-12T00:47:35.491Z,23.85
2018-08-12T00:48:35.624Z,23.85
2018-08-12T00:49:35.303Z,23.85
2018-08-12T00:50:35.242Z,23.86
2018-08-12T00:51:35.300Z,23.87
2018-08-12T00:52:35.391Z,23.87
2018-08-12T00:53:35.413Z,23.85
2018-08-12T00:54:35.388Z,23.88
2018-08-12T00:55:35.186Z,23.85
2018-08-12T00:56:35.359Z,23.86
2018-08-12T00:57:35.405Z,23.84
2018-08-12T00:58:35.228Z,23.85
2018-08-12T00:59:35.154Z,23.85
2018-08-12T01:00:35.814Z,23.86
2018-08-12T01:01:35.480Z,23.84
2018-08-12T01:02:35.339Z,23.85
2018-08-12T01:03:35.245Z,23.85
2018-08-12T01:04:35.353Z,23.85
2018-08-12T01:05:35.204Z,23.84
2018-08-12T01:06:35.342Z,23.84
2018-08-12T01:07:35.332Z,23.83
2018-08-12T01:08:35.331Z,23.84
2018-08-12T01:09:35.397Z,23.83
2018-08-12T01:10:35.313Z,23.83
2018-08-12T01:11:35.649Z,23.85
2018-08-12T01:12:35.152Z,23.85
2018-08-12T01:13:35.547Z,23.85
2018-08-12T01:14:35.467Z,23.85
2018-08-12T01:15:35.686Z,23.84
2018-08-12T01:16:35.416Z,23.84
2018-08-12T01:17:35.197Z,23.85
2018-08-12T01:18:35.348Z,23.85
2018-08-12T01:19:35.403Z,23.84
2018-08-12T01:20:35.310Z,23.84
2018-08-12T01:21:35.339Z,23.83
2018-08-12T01:22:35.449Z,23.83
2018-08-12T01:23:35.485Z,23.82
2018-08-12T01:24:35.313Z,23.83
2018-08-12T01:25:35.271Z,23.82
2018-08-12T01:26:35.213Z,23.82
2018-08-12T01:27:35.266Z,23.83
2018-08-12T01:28:35.256Z,23.83
2018-08-12T01:29:35.349Z,23.83
2018-08-12T01:30:35.299Z,23.82
2018-08-12T01:31:35.252Z,23.81
2018-08-12T01:32:35.488Z,23.82
2018-08-12T01:33:35.348Z,23.83
2018-08-12T01:34:35.411Z,23.82
2018-08-12T01:35:35.190Z,23.81
2018-08-12T01:36:35.260Z,23.83
2018-08-12T01:37:35.308Z,23.82
2018-08-12T01:38:35.642Z,23.81
2018-08-12T01:39:35.297Z,23.8
2018-08-12T01:40:35.332Z,23.81
2018-08-12T01:41:35.681Z,23.81
2018-08-12T01:42:35.300Z,23.83
2018-08-12T01:43:35.269Z,23.81
2018-08-12T01:44:35.166Z,23.8
2018-08-12T01:45:35.549Z,23.81
2018-08-12T01:46:35.697Z,23.8
2018-08-12T01:47:35.367Z,23.79
2018-08-12T01:48:35.692Z,23.8
2018-08-12T01:49:35.546Z,23.82
2018-08-12T01:50:35.468Z,23.8
2018-08-12T01:51:35.783Z,23.8
2018-08-12T01:52:35.285Z,23.8
2018-08-12T01:53:35.480Z,23.79
2018-08-12T01:54:35.272Z,23.79
2018-08-12T01:55:35.236Z,23.79
2018-08-12T01:56:35.506Z,23.79
2018-08-12T01:57:35.354Z,23.78
2018-08-12T01:58:35.483Z,23.78
2018-08-12T01:59:35.273Z,23.79
2018-08-12T02:00:35.306Z,23.79
2018-08-12T02:01:35.296Z,23.78
2018-08-12T02:02:35.159Z,23.78
2018-08-12T02:03:35.192Z,23.8
2018-08-12T02:04:35.416Z,23.79
2018-08-12T02:05:35.450Z,23.78
2018-08-12T02:06:35.270Z,23.79
2018-08-12T02:07:35.467Z,23.78
2018-08-12T02:08:35.437Z,23.78
2018-08-12T02:09:35.403Z,23.79
2018-08-12T02:10:35.275Z,23.79
2018-08-12T02:11:35.227Z,23.77
2018-08-12T02:12:35.164Z,23.8
2018-08-12T02:13:35.605Z,23.78
2018-08-12T02:14:35.414Z,23.78
2018-08-12T02:15:35.513Z,23.78
2018-08-12T02:16:35.321Z,23.78
2018-08-12T02:17:35.435Z,23.78
2018-08-12T02:18:35.226Z,23.79
2018-08-12T02:19:35.388Z,23.79
2018-08-12T02:20:35.264Z,23.77
2018-08-12T02:21:35.212Z,23.78
2018-08-12T02:22:35.419Z,23.76
2018-08-12T02:23:35.329Z,23.79
2018-08-12T02:24:35.389Z,23.78
2018-08-12T02:25:35.640Z,23.79
2018-08-12T02:26:35.341Z,23.76
2018-08-12T02:27:35.330Z,23.78
2018-08-12T02:28:35.544Z,23.77
2018-08-12T02:29:35.245Z,23.77
2018-08-12T02:30:35.273Z,23.77
2018-08-12T02:31:35.413Z,23.79
2018-08-12T02:32:35.337Z,23.78
2018-08-12T02:33:35.394Z,23.77
2018-08-12T02:34:35.302Z,23.78
2018-08-12T02:35:35.329Z,23.77
2018-08-12T02:36:35.166Z,23.76
2018-08-12T02:37:35.400Z,23.76
2018-08-12T02:38:35.224Z,23.75
2018-08-12T02:39:35.246Z,23.77
2018-08-12T02:40:35.420Z,23.76
2018-08-12T02:41:35.410Z,23.76
2018-08-12T02:42:35.312Z,23.76
2018-08-12T02:43:35.433Z,23.76
2018-08-12T02:44:35.300Z,23.74
2018-08-12T02:45:35.206Z,23.75
2018-08-12T02:46:35.204Z,23.76
2018-08-12T02:47:35.180Z,23.76
2018-08-12T02:48:35.467Z,23.76
2018-08-12T02:49:35.268Z,23.76
2018-08-12T02:50:35.449Z,23.76
2018-08-12T02:51:35.257Z,23.76
2018-08-12T02:52:35.300Z,23.76
2018-08-12T02:53:35.259Z,23.75
2018-08-12T02:54:35.378Z,23.76
2018-08-12T02:55:35.321Z,23.76
2018-08-12T02:56:35.207Z,23.75
2018-08-12T02:57:35.299Z,23.75
2018-08-12T02:58:35.189Z,23.75
2018-08-12T02:59:35.407Z,23.76
2018-08-12T03:00:35.356Z,23.75
2018-08-12T03:01:35.343Z,23.75
2018-08-12T03:02:35.401Z,23.74
2018-08-12T03:03:35.504Z,23.78
2018-08-12T03:04:35.330Z,23.77
2018-08-12T03:05:35.082Z,23.75
2018-08-12T03:06:35.176Z,23.77
2018-08-12T03:07:35.431Z,23.75
2018-08-12T03:08:35.454Z,23.75
2018-08-12T03:09:35.276Z,23.75
2018-08-12T03:10:35.222Z,23.76
2018-08-12T03:11:35.351Z,23.74
2018-08-12T03:12:35.448Z,23.74
2018-08-12T03:13:35.188Z,23.73
2018-08-12T03:14:35.169Z,23.75
2018-08-12T03:15:35.437Z,23.76
2018-08-12T03:16:35.397Z,23.74
2018-08-12T03:17:35.433Z,23.74
2018-08-12T03:18:35.343Z,23.74
2018-08-12T03:19:35.408Z,23.74
2018-08-12T03:20:35.468Z,23.74
2018-08-12T03:21:35.319Z,23.74
2018-08-12T03:22:35.292Z,23.74
2018-08-12T03:23:35.228Z,23.74
2018-08-12T03:24:35.353Z,23.76
2018-08-12T03:25:35.282Z,23.74
2018-08-12T03:26:35.421Z,23.76
2018-08-12T03:27:35.156Z,23.75
2018-08-12T03:28:35.219Z,23.74
2018-08-12T03:29:35.378Z,23.73
2018-08-12T03:30:35.443Z,23.74
2018-08-12T03:31:35.371Z,23.76
2018-08-12T03:32:35.154Z,23.74
2018-08-12T03:33:35.220Z,23.77
2018-08-12T03:34:35.488Z,23.75
2018-08-12T03:35:35.311Z,23.74
2018-08-12T03:36:35.350Z,23.76
2018-08-12T03:37:35.244Z,23.74
2018-08-12T03:38:35.339Z,23.74
2018-08-12T03:39:35.349Z,23.75
2018-08-12T03:40:35.350Z,23.73
2018-08-12T03:41:35.264Z,23.72
2018-08-12T03:42:35.183Z,23.72
2018-08-12T03:43:35.325Z,23.72
2018-08-12T03:44:35.318Z,23.72
2018-08-12T03:45:35.725Z,23.73
2018-08-12T03:46:35.453Z,23.72
2018-08-12T03:47:35.425Z,23.72
2018-08-12T03:48:35.376Z,23.73
2018-08-12T03:49:35.360Z,23.73
2018-08-12T03:50:35.273Z,23.73
2018-08-12T03:51:35.281Z,23.72
2018-08-12T03:52:35.326Z,23.72
2018-08-12T03:53:35.279Z,23.72
2018-08-12T03:54:35.236Z,23.72
2018-08-12T03:55:35.176Z,23.72
2018-08-12T03:56:35.313Z,23.73
2018-08-12T03:57:35.275Z,23.72
2018-08-12T03:58:35.174Z,23.73
2018-08-12T03:59:35.405Z,23.71
2018-08-12T04:00:35.345Z,23.71
2018-08-12T04:01:35.206Z,23.72
2018-08-12T04:02:35.306Z,23.72
2018-08-12T04:03:35.381Z,23.72
2018-08-12T04:04:35.369Z,23.72
2018-08-12T04:05:35.371Z,23.71
2018-08-12T04:06:35.470Z,23.71
2018-08-12T04:07:35.296Z,23.7
2018-08-12T04:08:35.246Z,23.7
2018-08-12T04:09:35.232Z,23.71
2018-08-12T04:10:35.151Z,23.71
2018-08-12T04:11:35.346Z,23.71
2018-08-12T04:12:35.305Z,23.72
2018-08-12T04:13:35.426Z,23.71
2018-08-12T04:14:35.411Z,23.72
2018-08-12T04:15:35.324Z,23.72
2018-08-12T04:16:35.378Z,23.71
2018-08-12T04:17:35.464Z,23.72
2018-08-12T04:18:35.365Z,23.71
2018-08-12T04:19:35.149Z,23.73
2018-08-12T04:20:35.311Z,23.72
2018-08-12T04:21:35.160Z,23.72
2018-08-12T04:22:35.132Z,23.7
2018-08-12T04:23:35.339Z,23.7
2018-08-12T04:24:35.202Z,23.7
2018-08-12T04:25:35.242Z,23.69
2018-08-12T04:26:35.352Z,23.71
2018-08-12T04:27:35.299Z,23.72
2018-08-12T04:28:35.333Z,23.71
2018-08-12T04:29:35.478Z,23.7
2018-08-12T04:30:35.235Z,23.68
2018-08-12T04:31:35.334Z,23.69
2018-08-12T04:32:35.191Z,23.7
2018-08-12T04:33:35.193Z,23.7
2018-08-12T04:34:35.299Z,23.7
2018-08-12T04:35:35.267Z,23.69
2018-08-12T04:36:35.265Z,23.67
2018-08-12T04:37:35.236Z,23.68
2018-08-12T04:38:35.395Z,23.69
2018-08-12T04:39:35.265Z,23.71
2018-08-12T04:40:35.193Z,23.64
2018-08-12T04:41:35.399Z,23.32
2018-08-12T04:42:35.422Z,22.89
2018-08-12T04:43:35.150Z,22.78
2018-08-12T04:44:35.378Z,22.64
2018-08-12T04:45:35.355Z,22.44
2018-08-12T04:46:35.410Z,22.11
2018-08-12T04:47:35.584Z,21.9
2018-08-12T04:48:35.119Z,21.8
2018-08-12T04:49:35.339Z,21.59
2018-08-12T04:50:35.301Z,21.45
2018-08-12T04:51:35.338Z,21.54
2018-08-12T04:52:35.549Z,21.63
2018-08-12T04:53:35.152Z,21.27
2018-08-12T04:54:35.420Z,21.13
2018-08-12T04:55:35.456Z,21.04
2018-08-12T04:56:35.277Z,20.92
2018-08-12T04:57:35.371Z,20.97
2018-08-12T04:58:35.353Z,20.89
2018-08-12T04:59:35.288Z,20.74
2018-08-12T05:00:35.245Z,20.58
2018-08-12T05:01:35.359Z,20.77
2018-08-12T05:02:35.122Z,20.56
2018-08-12T05:03:35.242Z,20.53
2018-08-12T05:04:35.431Z,20.68
2018-08-12T05:05:35.297Z,20.34
2018-08-12T05:06:35.111Z,20.4
2018-08-12T05:07:35.271Z,20.26
2018-08-12T05:08:35.337Z,20.19
2018-08-12T05:09:35.220Z,20.13
2018-08-12T05:10:35.309Z,20.03
2018-08-12T05:11:35.564Z,20.08
2018-08-12T05:12:35.285Z,20.09
2018-08-12T05:13:35.197Z,20.07
2018-08-12T05:14:35.218Z,20.03
2018-08-12T05:15:35.229Z,20.19
2018-08-12T05:16:35.290Z,20.02
2018-08-12T05:17:35.148Z,20.03
2018-08-12T05:18:35.335Z,19.92
2018-08-12T05:19:35.172Z,19.94
2018-08-12T05:20:35.230Z,19.94
2018-08-12T05:21:35.251Z,19.91
2018-08-12T05:22:35.229Z,19.97
2018-08-12T05:23:35.283Z,19.97
2018-08-12T05:24:35.155Z,19.9
2018-08-12T05:25:35.422Z,20.05
2018-08-12T05:26:35.296Z,19.94
2018-08-12T05:27:35.173Z,19.99
2018-08-12T05:28:35.420Z,19.89
2018-08-12T05:29:35.096Z,20.01
2018-08-12T05:30:35.259Z,19.96
2018-08-12T05:31:35.307Z,20
2018-08-12T05:32:35.292Z,19.97
2018-08-12T05:33:35.089Z,20.02
2018-08-12T05:34:35.158Z,19.94
2018-08-12T05:35:35.446Z,20.08
2018-08-12T05:36:35.311Z,20.01
2018-08-12T05:37:35.326Z,20.04
2018-08-12T05:38:35.346Z,19.95
2018-08-12T05:39:35.165Z,20.06
2018-08-12T05:40:35.304Z,20.22
2018-08-12T05:41:35.246Z,19.98
2018-08-12T05:42:35.123Z,20.05
2018-08-12T05:43:35.344Z,19.94
2018-08-12T05:44:35.375Z,20.01
2018-08-12T05:45:35.293Z,20.01
2018-08-12T05:46:35.218Z,19.94
2018-08-12T05:47:35.321Z,20.14
2018-08-12T05:48:35.214Z,20.06
2018-08-12T05:49:35.253Z,20.24
2018-08-12T05:50:35.124Z,20.23
2018-08-12T05:51:35.410Z,20.23
2018-08-12T05:52:35.266Z,20.09
2018-08-12T05:53:35.197Z,20.1
2018-08-12T05:54:35.240Z,20.16
2018-08-12T05:55:35.224Z,20.12
2018-08-12T05:56:35.394Z,20.23
2018-08-12T05:57:35.252Z,20.11
2018-08-12T05:58:35.212Z,20.13
2018-08-12T05:59:35.333Z,20.22
2018-08-12T06:00:35.201Z,20.12
2018-08-12T06:01:35.318Z,20.14
2018-08-12T06:02:35.419Z,20.14
2018-08-12T06:03:35.447Z,20.21
2018-08-12T06:04:35.195Z,20.24
2018-08-12T06:05:35.497Z,20.32
2018-08-12T06:06:35.369Z,20.3
2018-08-12T06:07:35.239Z,20.31
2018-08-12T06:08:35.279Z,20.38
2018-08-12T06:09:35.239Z,20.33
2018-08-12T06:10:35.271Z,20.34
2018-08-12T06:11:35.252Z,20.31
2018-08-12T06:12:35.233Z,20.32
2018-08-12T06:13:35.314Z,20.34
2018-08-12T06:14:35.437Z,20.35
2018-08-12T06:15:35.286Z,20.43
2018-08-12T06:16:35.611Z,20.44
2018-08-12T06:17:35.277Z,20.47
2018-08-12T06:18:35.282Z,20.52
2018-08-12T06:19:35.371Z,20.46
2018-08-12T06:20:35.224Z,20.51
2018-08-12T06:21:35.039Z,20.55
2018-08-12T06:22:35.404Z,20.58
2018-08-12T06:23:35.361Z,20.58
2018-08-12T06:24:35.473Z,20.58
2018-08-12T06:25:35.151Z,20.6
2018-08-12T06:26:35.164Z,20.61
2018-08-12T06:27:35.155Z,20.65
2018-08-12T06:28:35.356Z,20.63
2018-08-12T06:29:35.172Z,20.59
2018-08-12T06:30:35.038Z,20.66
2018-08-12T06:31:35.338Z,20.64
2018-08-12T06:32:35.281Z,20.65
2018-08-12T06:33:35.176Z,20.68
2018-08-12T06:34:35.224Z,20.73
2018-08-12T06:35:35.349Z,20.71
2018-08-12T06:36:35.129Z,20.74
2018-08-12T06:37:35.306Z,20.75
2018-08-12T06:38:35.152Z,20.72
2018-08-12T06:39:35.158Z,20.78
2018-08-12T06:40:35.363Z,20.82
2018-08-12T06:41:35.228Z,20.82
2018-08-12T06:42:35.232Z,20.89
2018-08-12T06:43:35.396Z,20.9
2018-08-12T06:44:35.223Z,20.89
2018-08-12T06:45:35.267Z,20.89
2018-08-12T06:46:35.202Z,20.9
2018-08-12T06:47:35.267Z,20.91
2018-08-12T06:48:35.123Z,20.92
2018-08-12T06:49:35.292Z,20.96
2018-08-12T06:50:35.119Z,20.99
2018-08-12T06:51:35.318Z,20.99
2018-08-12T06:52:35.246Z,20.97
2018-08-12T06:53:35.384Z,20.97
2018-08-12T06:54:35.217Z,20.98
2018-08-12T06:55:35.162Z,20.97
2018-08-12T06:56:35.193Z,20.95
2018-08-12T06:57:36.027Z,20.99
2018-08-12T06:58:35.152Z,21.01
2018-08-12T06:59:35.088Z,21.03
2018-08-12T07:00:35.344Z,21.05
2018-08-12T07:01:35.271Z,21.01
2018-08-12T07:02:35.340Z,21.01
2018-08-12T07:03:35.360Z,21.05
2018-08-12T07:04:35.394Z,21.03
2018-08-12T07:05:35.310Z,21.05
2018-08-12T07:06:35.135Z,21.05
2018-08-12T07:07:35.390Z,21.03
2018-08-12T07:08:35.356Z,21.03
2018-08-12T07:09:35.331Z,21.08
2018-08-12T07:10:35.375Z,21.1
2018-08-12T07:11:35.218Z,21.14
2018-08-12T07:12:35.222Z,21.13
2018-08-12T07:13:35.136Z,21.14
2018-08-12T07:14:35.295Z,21.14
2018-08-12T07:15:35.248Z,21.17
2018-08-12T07:16:35.104Z,21.15
2018-08-12T07:17:35.387Z,21.18
2018-08-12T07:18:35.357Z,21.2
2018-08-12T07:19:35.111Z,21.23
2018-08-12T07:20:35.387Z,21.22
2018-08-12T07:21:35.131Z,21.2
2018-08-12T07:22:35.327Z,21.24
2018-08-12T07:23:35.160Z,21.21
2018-08-12T07:24:35.105Z,21.25
2018-08-12T07:25:35.166Z,21.2
2018-08-12T07:26:35.094Z,21.23
2018-08-12T07:27:35.208Z,21.27
2018-08-12T07:28:35.202Z,21.28
2018-08-12T07:29:35.203Z,21.28
2018-08-12T07:30:35.251Z,21.28
2018-08-12T07:31:35.268Z,21.28
2018-08-12T07:32:35.128Z,21.27
2018-08-12T07:33:35.144Z,21.3
2018-08-12T07:34:35.270Z,21.32
2018-08-12T07:35:35.111Z,21.37
2018-08-12T07:36:35.108Z,21.4
2018-08-12T07:37:35.092Z,21.44
2018-08-12T07:38:35.434Z,21.47
2018-08-12T07:39:35.104Z,21.48
2018-08-12T07:40:35.319Z,21.49
2018-08-12T07:41:35.082Z,21.51
2018-08-12T07:42:35.123Z,21.51
2018-08-12T07:43:35.220Z,21.58
2018-08-12T07:44:35.114Z,21.53
2018-08-12T07:45:35.320Z,21.59
2018-08-12T07:46:35.209Z,21.61
2018-08-12T07:47:35.351Z,21.62
2018-08-12T07:48:35.148Z,21.62
2018-08-12T07:49:35.236Z,21.65
2018-08-12T07:50:35.065Z,21.66
2018-08-12T07:51:35.037Z,21.67
2018-08-12T07:52:35.257Z,21.67
2018-08-12T07:53:35.396Z,21.69
2018-08-12T07:54:35.136Z,21.71
2018-08-12T07:55:35.493Z,21.7
2018-08-12T07:56:35.175Z,21.71
2018-08-12T07:57:35.108Z,21.72
2018-08-12T07:58:35.281Z,21.73
2018-08-12T07:59:35.090Z,21.74
2018-08-12T08:00:35.143Z,21.76
2018-08-12T08:01:35.093Z,21.79
2018-08-12T08:02:35.237Z,21.77
2018-08-12T08:03:35.251Z,21.78
2018-08-12T08:04:35.122Z,21.79
2018-08-12T08:05:35.339Z,21.81
2018-08-12T08:06:35.205Z,21.82
2018-08-12T08:07:35.160Z,21.81
2018-08-12T08:08:35.341Z,21.83
2018-08-12T08:09:35.069Z,21.83
2018-08-12T08:10:35.320Z,21.84
2018-08-12T08:11:35.199Z,21.85
2018-08-12T08:12:35.149Z,21.85
2018-08-12T08:13:35.071Z,21.86
2018-08-12T08:14:35.225Z,21.86
2018-08-12T08:15:35.211Z,21.87
2018-08-12T08:16:35.093Z,21.87
2018-08-12T08:17:35.454Z,21.88
2018-08-12T08:18:35.259Z,21.88
2018-08-12T08:19:35.283Z,21.89
2018-08-12T08:20:35.157Z,21.89
2018-08-12T08:21:35.225Z,21.92
2018-08-12T08:22:35.682Z,21.93
2018-08-12T08:23:35.259Z,21.92
2018-08-12T08:24:35.471Z,21.93
2018-08-12T08:25:35.529Z,21.94
2018-08-12T08:26:35.286Z,21.95
2018-08-12T08:27:35.188Z,21.95
2018-08-12T08:28:35.299Z,21.97
2018-08-12T08:29:35.254Z,21.97
2018-08-12T08:30:35.066Z,21.98
2018-08-12T08:31:35.394Z,21.98
2018-08-12T08:32:35.195Z,22
2018-08-12T08:33:35.289Z,22.03
2018-08-12T08:34:35.272Z,22.06
2018-08-12T08:35:35.156Z,22.07
2018-08-12T08:36:35.087Z,22.1
2018-08-12T08:37:35.191Z,22.11
2018-08-12T08:38:35.239Z,22.12
2018-08-12T08:39:35.115Z,22.14
2018-08-12T08:40:35.174Z,22.17
2018-08-12T08:41:35.313Z,22.2
2018-08-12T08:42:35.313Z,22.21
2018-08-12T08:43:35.236Z,22.22
2018-08-12T08:44:35.243Z,22.23
2018-08-12T08:45:35.079Z,22.29
2018-08-12T08:46:35.121Z,22.3
2018-08-12T08:47:35.427Z,22.3
2018-08-12T08:48:35.252Z,22.32
2018-08-12T08:49:35.174Z,22.34
2018-08-12T08:50:35.170Z,22.33
2018-08-12T08:51:35.102Z,22.34
2018-08-12T08:52:35.144Z,22.34
2018-08-12T08:53:35.321Z,22.34
2018-08-12T08:54:35.127Z,22.36
2018-08-12T08:55:35.351Z,22.38
2018-08-12T08:56:35.307Z,22.39
2018-08-12T08:57:35.199Z,22.4
2018-08-12T08:58:35.206Z,22.41
2018-08-12T08:59:35.282Z,22.41
2018-08-12T09:00:35.300Z,22.43
2018-08-12T09:01:35.250Z,22.43
2018-08-12T09:02:35.402Z,22.44
2018-08-12T09:03:35.033Z,22.46
2018-08-12T09:04:35.255Z,22.46
2018-08-12T09:05:35.285Z,22.47
2018-08-12T09:06:35.284Z,22.47
2018-08-12T09:07:35.275Z,22.49
2018-08-12T09:08:35.599Z,22.48
2018-08-12T09:09:35.267Z,22.5
2018-08-12T09:10:35.110Z,22.5
2018-08-12T09:11:35.303Z,22.51
2018-08-12T09:12:35.064Z,22.51
2018-08-12T09:13:35.179Z,22.5
2018-08-12T09:14:35.156Z,22.49
2018-08-12T09:15:35.210Z,22.48
2018-08-12T09:16:35.117Z,22.5
2018-08-12T09:17:35.302Z,22.49
2018-08-12T09:18:35.089Z,22.49
2018-08-12T09:19:35.208Z,22.49
2018-08-12T09:20:35.040Z,22.49
2018-08-12T09:21:35.044Z,22.49
2018-08-12T09:22:35.157Z,22.52
2018-08-12T09:23:35.293Z,22.51
2018-08-12T09:24:35.216Z,22.51
2018-08-12T09:25:35.153Z,22.53
2018-08-12T09:26:35.173Z,22.55
2018-08-12T09:27:35.256Z,22.58
2018-08-12T09:28:35.362Z,22.57
2018-08-12T09:29:35.280Z,22.58
2018-08-12T09:30:35.091Z,22.6
2018-08-12T09:31:35.107Z,22.59
2018-08-12T09:32:35.330Z,22.6
2018-08-12T09:33:35.302Z,22.61
2018-08-12T09:34:35.241Z,22.61
2018-08-12T09:35:35.328Z,22.61
2018-08-12T09:36:35.268Z,22.65
2018-08-12T09:37:35.048Z,22.63
2018-08-12T09:38:35.351Z,22.64
2018-08-12T09:39:35.096Z,22.66
2018-08-12T09:40:35.185Z,22.66
2018-08-12T09:41:35.102Z,22.66
2018-08-12T09:42:35.144Z,22.67
2018-08-12T09:43:35.467Z,22.67
2018-08-12T09:44:35.360Z,22.68
2018-08-12T09:45:35.374Z,22.69
2018-08-12T09:46:35.172Z,22.71
2018-08-12T09:47:35.345Z,22.7
2018-08-12T09:48:35.044Z,22.71
2018-08-12T09:49:35.287Z,22.72
2018-08-12T09:50:35.531Z,22.73
2018-08-12T09:51:35.415Z,22.74
2018-08-12T09:52:35.212Z,22.75
2018-08-12T09:53:35.318Z,22.76
2018-08-12T09:54:35.322Z,22.77
2018-08-12T09:55:35.105Z,22.78
2018-08-12T09:56:35.043Z,22.79
2018-08-12T09:57:35.084Z,22.81
2018-08-12T09:58:35.352Z,22.8
2018-08-12T09:59:35.346Z,22.8
2018-08-12T10:00:35.878Z,22.8
2018-08-12T10:01:35.329Z,22.81
2018-08-12T10:02:35.227Z,22.8
2018-08-12T10:03:35.383Z,22.82
2018-08-12T10:04:35.201Z,22.79
2018-08-12T10:05:35.068Z,22.76
2018-08-12T10:06:35.048Z,22.75
2018-08-12T10:07:35.217Z,22.74
2018-08-12T10:08:35.109Z,22.74
2018-08-12T10:09:35.268Z,22.73
2018-08-12T10:10:35.366Z,22.73
2018-08-12T10:11:35.188Z,22.72
2018-08-12T10:12:35.201Z,22.71
2018-08-12T10:13:35.237Z,22.71
2018-08-12T10:14:35.208Z,22.71
2018-08-12T10:15:35.093Z,22.71
2018-08-12T10:16:35.447Z,22.69
2018-08-12T10:17:35.323Z,22.69
2018-08-12T10:18:35.347Z,22.68
2018-08-12T10:19:35.272Z,22.69
2018-08-12T10:20:35.251Z,22.68
2018-08-12T10:21:35.282Z,22.68
2018-08-12T10:22:35.175Z,22.68
2018-08-12T10:23:35.370Z,22.68
2018-08-12T10:24:35.221Z,22.68
2018-08-12T10:25:35.220Z,22.68
2018-08-12T10:26:35.212Z,22.68
2018-08-12T10:27:35.376Z,22.68
2018-08-12T10:28:35.353Z,22.68
2018-08-12T10:29:35.119Z,22.68
2018-08-12T10:30:35.321Z,22.69
2018-08-12T10:31:35.256Z,22.68
2018-08-12T10:32:35.247Z,22.68
2018-08-12T10:33:35.126Z,22.67
2018-08-12T10:34:35.115Z,22.68
2018-08-12T10:35:35.314Z,22.68
2018-08-12T10:36:35.229Z,22.68
2018-08-12T10:37:35.120Z,22.68
2018-08-12T10:38:35.143Z,22.67
2018-08-12T10:39:35.112Z,22.68
2018-08-12T10:40:35.109Z,22.69
2018-08-12T10:41:35.197Z,22.68
2018-08-12T10:42:35.264Z,22.69
2018-08-12T10:43:35.091Z,22.68
2018-08-12T10:44:35.001Z,22.69
2018-08-12T10:45:35.147Z,22.69
2018-08-12T10:46:35.198Z,22.68
2018-08-12T10:47:35.120Z,22.69
2018-08-12T10:48:35.226Z,22.69
2018-08-12T10:49:35.280Z,22.69
2018-08-12T10:50:35.198Z,22.68
2018-08-12T10:51:35.253Z,22.68
2018-08-12T10:52:35.007Z,22.68
2018-08-12T10:53:35.263Z,22.68
2018-08-12T10:54:35.253Z,22.68
2018-08-12T10:55:35.280Z,22.69
2018-08-12T10:56:35.327Z,22.69
2018-08-12T10:57:35.375Z,22.69
2018-08-12T10:58:35.500Z,22.69
2018-08-12T10:59:35.265Z,22.7
2018-08-12T11:00:35.304Z,22.7
2018-08-12T11:01:35.336Z,22.69
2018-08-12T11:02:35.069Z,22.7
2018-08-12T11:03:35.425Z,22.69
2018-08-12T11:04:35.047Z,22.7
2018-08-12T11:05:35.284Z,22.69
2018-08-12T11:06:35.196Z,22.69
2018-08-12T11:07:35.440Z,22.7
2018-08-12T11:08:35.362Z,22.7
2018-08-12T11:09:35.254Z,22.69
2018-08-12T11:10:35.172Z,22.71
2018-08-12T11:11:35.162Z,22.71
2018-08-12T11:12:35.191Z,22.71
2018-08-12T11:13:35.489Z,22.71
2018-08-12T11:14:35.213Z,22.7
2018-08-12T11:15:35.500Z,22.72
2018-08-12T11:16:35.275Z,22.72
2018-08-12T11:17:35.203Z,22.72
2018-08-12T11:18:35.312Z,22.72
2018-08-12T11:19:35.484Z,22.72
2018-08-12T11:20:35.178Z,22.72
2018-08-12T11:21:35.302Z,22.72
2018-08-12T11:22:35.373Z,22.72
2018-08-12T11:23:35.229Z,22.72
2018-08-12T11:24:35.375Z,22.72
2018-08-12T11:25:35.333Z,22.72
2018-08-12T11:26:35.321Z,22.72
2018-08-12T11:27:35.352Z,22.73
2018-08-12T11:28:35.356Z,22.73
2018-08-12T11:29:35.223Z,22.72
2018-08-12T11:30:35.296Z,22.73
2018-08-12T11:31:35.080Z,22.73
2018-08-12T11:32:35.861Z,22.73
2018-08-12T11:33:35.223Z,22.73
2018-08-12T11:34:35.244Z,22.73
2018-08-12T11:35:35.257Z,22.73
2018-08-12T11:36:35.200Z,22.73
2018-08-12T11:37:35.208Z,22.73
2018-08-12T11:38:35.226Z,22.74
2018-08-12T11:39:35.065Z,22.74
2018-08-12T11:40:35.189Z,22.74
2018-08-12T11:41:35.247Z,22.74
2018-08-12T11:42:35.342Z,22.74
2018-08-12T11:43:35.199Z,22.75
2018-08-12T11:44:35.219Z,22.74
2018-08-12T11:45:35.092Z,22.75
2018-08-12T11:46:35.188Z,22.75
2018-08-12T11:47:35.330Z,22.75
2018-08-12T11:48:35.258Z,22.76
2018-08-12T11:49:35.104Z,22.76
2018-08-12T11:50:35.249Z,22.75
2018-08-12T11:51:35.264Z,22.75
2018-08-12T11:52:35.275Z,22.76
2018-08-12T11:53:35.298Z,22.76
2018-08-12T11:54:35.333Z,22.76
2018-08-12T11:55:35.284Z,22.76
2018-08-12T11:56:35.107Z,22.75
2018-08-12T11:57:35.285Z,22.76
2018-08-12T11:58:35.053Z,22.77
2018-08-12T11:59:35.225Z,22.77
2018-08-12T12:00:35.252Z,22.77
2018-08-12T12:01:35.232Z,22.76
2018-08-12T12:02:35.105Z,22.77
2018-08-12T12:03:35.201Z,22.77
2018-08-12T12:04:35.287Z,22.77
2018-08-12T12:05:35.168Z,22.77
2018-08-12T12:06:35.131Z,22.77
2018-08-12T12:07:34.998Z,22.78
2018-08-12T12:08:35.301Z,22.77
2018-08-12T12:09:35.187Z,22.78
2018-08-12T12:10:35.219Z,22.78
2018-08-12T12:11:35.031Z,22.78
2018-08-12T12:12:35.275Z,22.78
2018-08-12T12:13:35.432Z,22.78
2018-08-12T12:14:35.364Z,22.78
2018-08-12T12:15:35.276Z,22.78
2018-08-12T12:16:35.030Z,22.79
2018-08-12T12:17:35.131Z,22.79
2018-08-12T12:18:35.253Z,22.79
2018-08-12T12:19:35.129Z,22.8
2018-08-12T12:20:35.260Z,22.79
2018-08-12T12:21:35.261Z,22.79
2018-08-12T12:22:35.088Z,22.8
2018-08-12T12:23:35.139Z,22.79
2018-08-12T12:24:35.149Z,22.8
2018-08-12T12:25:35.185Z,22.8
2018-08-12T12:26:35.064Z,22.8
2018-08-12T12:27:35.490Z,22.8
2018-08-12T12:28:35.488Z,22.8
2018-08-12T12:29:35.153Z,22.78
2018-08-12T12:30:35.219Z,22.84
2018-08-12T12:31:35.221Z,22.86
2018-08-12T12:32:35.153Z,22.87
2018-08-12T12:33:35.488Z,22.88
2018-08-12T12:34:35.197Z,22.9
2018-08-12T12:35:35.299Z,22.93
2018-08-12T12:36:34.989Z,22.93
2018-08-12T12:37:35.367Z,22.93
2018-08-12T12:38:35.183Z,22.95
2018-08-12T12:39:36.663Z,22.97
2018-08-12T12:40:35.095Z,22.98
2018-08-12T12:41:35.134Z,22.98
2018-08-12T12:42:35.334Z,23
2018-08-12T12:43:35.099Z,23.01
2018-08-12T12:44:35.153Z,23.02
2018-08-12T12:45:35.210Z,23.03
2018-08-12T12:46:35.053Z,23.05
2018-08-12T12:47:35.209Z,23.05
2018-08-12T12:48:35.176Z,23.06
2018-08-12T12:49:35.099Z,23.06
2018-08-12T12:50:35.260Z,23.05
2018-08-12T12:51:35.350Z,23.07
2018-08-12T12:52:35.166Z,23.06
2018-08-12T12:53:35.325Z,23.08
2018-08-12T12:54:35.228Z,23.08
2018-08-12T12:55:35.083Z,23.1